createdAt,value
2023-08-28T00:00:32.044Z,18.02
2023-08-28T00:03:06.317Z,18.10
2023-08-28T00:05:19.359Z,18.16
2023-08-28T00:07:32.340Z,18.18
2023-08-28T00:09:45.618Z,18.18
2023-08-28T00:12:00.993Z,18.17
2023-08-28T00:14:14.377Z,18.16
2023-08-28T00:16:27.410Z,18.13
2023-08-28T00:18:40.504Z,18.11
2023-08-28T00:20:53.552Z,18.10
2023-08-28T00:23:07.372Z,18.10
2023-08-28T00:25:20.780Z,18.13
2023-08-28T00:27:33.769Z,18.13
2023-08-28T00:29:48.454Z,18.14
2023-08-28T00:32:01.312Z,18.17
2023-08-28T00:34:14.113Z,18.19
2023-08-28T00:36:27.180Z,18.19
2023-08-28T00:38:41.304Z,18.22
2023-08-28T00:40:55.046Z,18.25
2023-08-28T00:43:08.069Z,18.30
2023-08-28T00:45:21.488Z,18.32
2023-08-28T00:47:34.619Z,18.35
2023-08-28T00:49:48.522Z,18.35
2023-08-28T00:52:01.353Z,18.35
2023-08-28T00:54:14.785Z,18.35
2023-08-28T00:56:28.385Z,18.38
2023-08-28T00:58:42.251Z,18.43
2023-08-28T01:00:55.454Z,18.47
2023-08-28T01:03:09.032Z,18.50
2023-08-28T01:05:22.701Z,18.49
2023-08-28T01:07:43.601Z,18.50
2023-08-28T01:10:14.432Z,18.50
2023-08-28T01:12:35.330Z,18.49
2023-08-28T01:15:01.071Z,18.50
2023-08-28T01:17:16.813Z,18.50
2023-08-28T01:19:36.907Z,18.47
2023-08-28T01:21:54.552Z,18.46
2023-08-28T01:24:10.782Z,18.44
2023-08-28T01:26:24.382Z,18.42
2023-08-28T01:28:37.561Z,18.42
2023-08-28T01:30:55.884Z,18.41
2023-08-28T01:33:09.266Z,18.38
2023-08-28T01:35:26.485Z,18.37
2023-08-28T01:37:48.775Z,18.36
2023-08-28T01:40:08.061Z,18.35
2023-08-28T01:42:22.607Z,18.33
2023-08-28T01:44:39.840Z,18.28
2023-08-28T01:46:53.769Z,18.25
2023-08-28T01:49:07.579Z,18.23
2023-08-28T01:51:20.619Z,18.21
2023-08-28T01:53:34.078Z,18.15
2023-08-28T01:56:12.299Z,18.14
2023-08-28T01:58:26.150Z,18.08
2023-08-28T02:00:38.477Z,18.04
2023-08-28T02:02:48.810Z,18.01
2023-08-28T02:05:01.919Z,17.97
2023-08-28T02:07:14.840Z,17.93
2023-08-28T02:09:27.978Z,17.93
2023-08-28T02:11:41.070Z,17.94
2023-08-28T02:13:53.942Z,17.96
2023-08-28T02:16:07.264Z,17.98
2023-08-28T02:18:20.693Z,18.00
2023-08-28T02:20:34.533Z,18.02
2023-08-28T02:22:47.276Z,18.02
2023-08-28T02:25:00.800Z,17.97
2023-08-28T02:27:14.039Z,17.90
2023-08-28T02:29:27.251Z,17.86
2023-08-28T02:31:40.251Z,17.83
2023-08-28T02:33:53.193Z,17.79
2023-08-28T02:36:07.356Z,17.79
2023-08-28T02:38:21.092Z,17.79
2023-08-28T02:40:34.544Z,17.75
2023-08-28T02:42:48.784Z,17.69
2023-08-28T02:45:02.029Z,17.64
2023-08-28T02:47:14.826Z,17.62
2023-08-28T02:49:27.837Z,17.61
2023-08-28T02:51:40.892Z,17.58
2023-08-28T02:53:53.953Z,17.52
2023-08-28T02:56:28.742Z,17.50
2023-08-28T02:58:41.624Z,17.52
2023-08-28T03:00:55.941Z,17.53
2023-08-28T03:03:10.631Z,17.54
2023-08-28T03:05:24.087Z,17.54
2023-08-28T03:07:36.960Z,17.55
2023-08-28T03:09:49.769Z,17.57
2023-08-28T03:12:02.691Z,17.56
2023-08-28T03:14:19.083Z,17.56
2023-08-28T03:16:34.876Z,17.55
2023-08-28T03:18:48.010Z,17.57
2023-08-28T03:21:01.298Z,17.59
2023-08-28T03:23:14.339Z,17.62
2023-08-28T03:25:27.864Z,17.65
2023-08-28T03:27:41.517Z,17.68
2023-08-28T03:29:55.441Z,17.71
2023-08-28T03:32:09.336Z,17.74
2023-08-28T03:34:22.091Z,17.78
2023-08-28T03:36:34.887Z,17.80
2023-08-28T03:38:47.909Z,17.81
2023-08-28T03:41:02.049Z,17.79
2023-08-28T03:43:15.548Z,17.76
2023-08-28T03:45:29.151Z,17.76
2023-08-28T03:47:42.239Z,17.77
2023-08-28T03:49:55.249Z,17.78
2023-08-28T03:52:08.660Z,17.80
2023-08-28T03:54:21.681Z,17.80
2023-08-28T03:56:35.060Z,17.81
2023-08-28T03:58:48.441Z,17.82
2023-08-28T04:01:01.459Z,17.84
2023-08-28T04:03:14.759Z,17.86
2023-08-28T04:05:28.951Z,17.87
2023-08-28T04:07:42.847Z,17.89
2023-08-28T04:09:56.039Z,17.91
2023-08-28T04:12:09.443Z,17.92
2023-08-28T04:14:22.861Z,17.93
2023-08-28T04:16:36.910Z,17.95
2023-08-28T04:18:50.732Z,17.96
2023-08-28T04:21:07.003Z,17.97
2023-08-28T04:23:20.039Z,17.97
2023-08-28T04:25:33.141Z,17.98
2023-08-28T04:27:46.474Z,17.98
2023-08-28T04:29:59.878Z,17.97
2023-08-28T04:32:14.286Z,17.96
2023-08-28T04:34:27.566Z,17.96
2023-08-28T04:36:40.473Z,17.95
2023-08-28T04:38:53.723Z,17.92
2023-08-28T04:41:07.846Z,17.89
2023-08-28T04:43:20.664Z,17.87
2023-08-28T04:45:33.950Z,17.85
2023-08-28T04:47:49.627Z,17.83
2023-08-28T04:50:02.822Z,17.79
2023-08-28T04:52:15.794Z,17.73
2023-08-28T04:54:29.211Z,17.70
2023-08-28T04:56:41.871Z,17.69
2023-08-28T04:58:54.786Z,17.69
2023-08-28T05:01:07.960Z,17.69
2023-08-28T05:03:21.053Z,17.69
2023-08-28T05:05:34.426Z,17.69
2023-08-28T05:07:47.416Z,17.70
2023-08-28T05:10:00.290Z,17.70
2023-08-28T05:12:13.807Z,17.71
2023-08-28T05:14:26.649Z,17.73
2023-08-28T05:16:39.954Z,17.73
2023-08-28T05:18:52.860Z,17.73
2023-08-28T05:21:08.389Z,17.72
2023-08-28T05:23:27.501Z,17.72
2023-08-28T05:25:40.609Z,17.71
2023-08-28T05:27:53.420Z,17.71
2023-08-28T05:30:07.405Z,17.70
2023-08-28T05:32:20.793Z,17.67
2023-08-28T05:34:34.853Z,17.65
2023-08-28T05:36:48.463Z,17.63
2023-08-28T05:39:01.233Z,17.61
2023-08-28T05:41:14.128Z,17.58
2023-08-28T05:43:27.063Z,17.55
2023-08-28T05:45:41.214Z,17.54
2023-08-28T05:47:54.429Z,17.54
2023-08-28T05:50:08.652Z,17.52
2023-08-28T05:52:24.420Z,17.51
2023-08-28T05:54:37.741Z,17.48
2023-08-28T05:56:50.739Z,17.45
2023-08-28T05:59:04.265Z,17.42
2023-08-28T06:01:17.098Z,17.42
2023-08-28T06:03:31.436Z,17.41
2023-08-28T06:05:44.378Z,17.40
2023-08-28T06:07:58.186Z,17.40
2023-08-28T06:10:12.288Z,17.40
2023-08-28T06:12:25.128Z,17.39
2023-08-28T06:14:38.626Z,17.36
2023-08-28T06:16:51.988Z,17.35
2023-08-28T06:19:06.139Z,17.36
2023-08-28T06:21:19.135Z,17.37
2023-08-28T06:23:32.147Z,17.38
2023-08-28T06:25:45.082Z,17.37
2023-08-28T06:27:58.167Z,17.40
2023-08-28T06:30:12.532Z,17.38
2023-08-28T06:32:25.441Z,17.36
2023-08-28T06:34:38.811Z,17.37
2023-08-28T06:36:52.019Z,17.37
2023-08-28T06:39:06.405Z,17.36
2023-08-28T06:41:19.593Z,17.36
2023-08-28T06:43:32.706Z,17.35
2023-08-28T06:45:45.511Z,17.35
2023-08-28T06:47:59.824Z,17.34
2023-08-28T06:50:13.829Z,17.35
2023-08-28T06:52:27.110Z,17.34
2023-08-28T06:56:56.682Z,17.26
2023-08-28T06:59:10.271Z,17.24
2023-08-28T07:01:23.491Z,17.20
2023-08-28T07:03:36.479Z,17.16
2023-08-28T07:05:50.203Z,17.14
2023-08-28T07:08:03.215Z,17.13
2023-08-28T07:10:16.881Z,17.14
2023-08-28T07:12:29.680Z,17.16
2023-08-28T07:14:42.415Z,17.19
2023-08-28T07:16:55.632Z,17.21
2023-08-28T07:19:08.932Z,17.22
2023-08-28T07:21:21.699Z,17.24
2023-08-28T07:23:35.260Z,17.26
2023-08-28T07:25:48.559Z,17.29
2023-08-28T07:28:01.560Z,17.31
2023-08-28T07:30:17.866Z,17.31
2023-08-28T07:32:31.027Z,17.32
2023-08-28T07:34:44.208Z,17.33
2023-08-28T07:36:58.111Z,17.31
2023-08-28T07:39:10.751Z,17.24
2023-08-28T07:41:23.806Z,17.16
2023-08-28T07:43:36.585Z,17.11
2023-08-28T07:45:49.582Z,17.08
2023-08-28T07:48:03.166Z,17.06
2023-08-28T07:50:16.182Z,17.05
2023-08-28T07:52:28.718Z,17.03
2023-08-28T07:54:41.264Z,17.02
2023-08-28T07:56:53.710Z,16.99
2023-08-28T07:59:06.566Z,16.97
2023-08-28T08:01:18.950Z,16.94
2023-08-28T08:03:32.203Z,16.87
2023-08-28T08:05:44.888Z,16.85
2023-08-28T08:07:57.896Z,16.84
2023-08-28T08:10:13.934Z,16.81
2023-08-28T08:12:28.676Z,16.79
2023-08-28T08:14:41.140Z,16.78
2023-08-28T08:16:53.572Z,16.77
2023-08-28T08:19:06.588Z,16.76
2023-08-28T08:21:19.673Z,16.74
2023-08-28T08:23:32.729Z,16.73
2023-08-28T08:25:45.901Z,16.70
2023-08-28T08:28:01.329Z,16.67
2023-08-28T08:30:17.512Z,16.65
2023-08-28T08:32:30.341Z,16.65
2023-08-28T08:34:43.383Z,16.65
2023-08-28T08:36:55.953Z,16.66
2023-08-28T08:39:08.432Z,16.68
2023-08-28T08:41:21.138Z,16.67
2023-08-28T08:43:37.588Z,16.66
2023-08-28T08:45:52.633Z,16.67
2023-08-28T08:48:07.244Z,16.69
2023-08-28T08:50:22.964Z,16.70
2023-08-28T08:52:38.038Z,16.74
2023-08-28T08:54:51.604Z,16.76
2023-08-28T08:57:12.250Z,16.78
2023-08-28T08:59:25.255Z,16.81
2023-08-28T09:01:41.696Z,16.83
2023-08-28T09:03:55.172Z,16.87
2023-08-28T09:06:09.016Z,16.90
2023-08-28T09:08:24.349Z,16.92
2023-08-28T09:10:38.091Z,16.95
2023-08-28T09:12:51.946Z,16.95
2023-08-28T09:15:04.881Z,16.95
2023-08-28T09:17:17.555Z,16.94
2023-08-28T09:19:30.341Z,16.96
2023-08-28T09:21:47.407Z,16.98
2023-08-28T09:24:00.249Z,17.00
2023-08-28T09:26:15.577Z,16.99
2023-08-28T09:28:28.177Z,16.99
2023-08-28T09:30:41.820Z,16.96
2023-08-28T09:32:54.608Z,16.93
2023-08-28T09:35:10.821Z,16.93
2023-08-28T09:37:24.128Z,16.94
2023-08-28T09:39:36.661Z,16.94
2023-08-28T09:41:50.789Z,16.94
2023-08-28T09:44:06.846Z,16.94
2023-08-28T09:46:20.569Z,16.95
2023-08-28T09:48:39.281Z,16.93
2023-08-28T09:50:58.066Z,16.90
2023-08-28T09:53:18.406Z,16.89
2023-08-28T09:55:33.733Z,16.89
2023-08-28T09:57:49.215Z,16.91
2023-08-28T10:00:01.798Z,16.94
2023-08-28T10:02:22.712Z,16.94
2023-08-28T10:04:37.207Z,16.97
2023-08-28T10:06:53.207Z,16.97
2023-08-28T10:09:08.294Z,16.95
2023-08-28T10:11:20.972Z,16.95
2023-08-28T10:13:35.757Z,16.97
2023-08-28T10:16:04.956Z,16.98
2023-08-28T10:18:24.720Z,16.99
2023-08-28T10:20:38.781Z,17.00
2023-08-28T10:22:53.122Z,16.99
2023-08-28T10:25:06.100Z,16.99
2023-08-28T10:27:18.636Z,16.99
2023-08-28T10:29:32.240Z,16.99
2023-08-28T10:31:45.549Z,16.98
2023-08-28T10:33:59.146Z,16.97
2023-08-28T10:36:24.293Z,16.98
2023-08-28T10:38:57.307Z,16.99
2023-08-28T10:41:12.422Z,16.98
2023-08-28T10:43:27.013Z,16.97
2023-08-28T10:45:42.770Z,16.99
2023-08-28T10:47:57.219Z,17.01
2023-08-28T10:50:12.237Z,17.02
2023-08-28T10:52:25.889Z,17.02
2023-08-28T10:54:47.197Z,17.02
2023-08-28T10:57:05.627Z,17.04
2023-08-28T10:59:35.018Z,17.04
2023-08-28T11:01:58.519Z,17.04
2023-08-28T11:04:22.376Z,17.04
2023-08-28T11:06:46.159Z,17.03
2023-08-28T11:09:01.725Z,17.02
2023-08-28T11:11:23.520Z,17.02
2023-08-28T11:13:36.079Z,17.04
2023-08-28T11:15:51.008Z,17.05
2023-08-28T11:18:32.690Z,17.06
2023-08-28T11:20:46.150Z,17.06
2023-08-28T11:23:06.967Z,17.05
2023-08-28T11:25:38.991Z,17.05
2023-08-28T11:27:55.534Z,17.06
2023-08-28T11:30:10.440Z,17.05
2023-08-28T11:32:24.981Z,17.05
2023-08-28T11:34:38.604Z,17.05
2023-08-28T11:36:51.250Z,17.06
2023-08-28T11:39:06.095Z,17.04
2023-08-28T11:41:20.358Z,17.04
2023-08-28T11:43:33.758Z,17.01
2023-08-28T11:45:46.740Z,16.99
2023-08-28T11:48:02.649Z,16.98
2023-08-28T11:50:15.678Z,16.97
2023-08-28T11:52:29.191Z,16.94
2023-08-28T11:54:41.691Z,16.92
2023-08-28T11:56:56.070Z,16.93
2023-08-28T11:59:09.752Z,16.93
2023-08-28T12:01:25.157Z,16.95
2023-08-28T12:03:38.683Z,16.95
2023-08-28T12:05:51.242Z,16.91
2023-08-28T12:08:02.081Z,16.88
2023-08-28T12:10:15.711Z,16.84
2023-08-28T12:12:30.060Z,16.82
2023-08-28T12:14:46.366Z,16.84
2023-08-28T12:17:07.727Z,16.85
2023-08-28T12:19:24.976Z,16.87
2023-08-28T12:21:42.271Z,16.90
2023-08-28T12:24:00.351Z,16.90
2023-08-28T12:26:13.954Z,16.91
2023-08-28T12:28:29.068Z,16.92
2023-08-28T12:30:42.825Z,16.93
2023-08-28T12:32:59.445Z,16.94
2023-08-28T12:35:18.765Z,16.96
2023-08-28T12:37:45.198Z,16.97
2023-08-28T12:40:00.415Z,17.01
2023-08-28T12:42:16.934Z,17.02
2023-08-28T12:44:31.310Z,17.02
2023-08-28T12:46:44.037Z,16.98
2023-08-28T12:48:58.267Z,16.98
2023-08-28T12:51:10.917Z,16.97
2023-08-28T12:53:23.668Z,16.98
2023-08-28T12:55:37.036Z,17.00
2023-08-28T12:57:50.050Z,17.02
2023-08-28T13:00:08.754Z,17.04
2023-08-28T13:02:21.930Z,17.05
2023-08-28T13:04:35.143Z,17.04
2023-08-28T13:06:47.839Z,17.01
2023-08-28T13:09:00.619Z,16.97
2023-08-28T13:11:13.393Z,16.92
2023-08-28T13:13:27.639Z,16.89
2023-08-28T13:15:43.171Z,16.85
2023-08-28T13:17:58.671Z,16.83
2023-08-28T13:20:14.753Z,16.82
2023-08-28T13:22:27.569Z,16.82
2023-08-28T13:24:44.244Z,16.80
2023-08-28T13:26:58.291Z,16.78
2023-08-28T13:29:11.414Z,16.76
2023-08-28T13:31:24.603Z,16.76
2023-08-28T13:33:37.471Z,16.78
2023-08-28T13:35:50.816Z,16.79
2023-08-28T13:38:03.620Z,16.79
2023-08-28T13:40:17.252Z,16.77
2023-08-28T13:42:30.259Z,16.76
2023-08-28T13:44:43.490Z,16.77
2023-08-28T13:46:56.241Z,16.77
2023-08-28T13:49:09.167Z,16.78
2023-08-28T13:51:21.975Z,16.77
2023-08-28T13:53:35.215Z,16.78
2023-08-28T13:55:48.053Z,16.78
2023-08-28T13:58:01.143Z,16.78
2023-08-28T14:00:16.594Z,16.79
2023-08-28T14:02:29.588Z,16.81
2023-08-28T14:04:42.496Z,16.82
2023-08-28T14:06:55.218Z,16.84
2023-08-28T14:09:08.097Z,16.85
2023-08-28T14:11:20.896Z,16.89
2023-08-28T14:13:33.616Z,16.90
2023-08-28T14:15:47.349Z,16.90
2023-08-28T14:18:01.630Z,16.89
2023-08-28T14:20:16.757Z,16.90
2023-08-28T14:22:29.737Z,16.91
2023-08-28T14:24:43.181Z,16.93
2023-08-28T14:26:56.149Z,16.96
2023-08-28T14:29:09.858Z,16.98
2023-08-28T14:31:22.695Z,17.00
2023-08-28T14:33:35.586Z,17.03
2023-08-28T14:35:51.177Z,17.05
2023-08-28T14:38:04.946Z,17.05
2023-08-28T14:40:23.909Z,17.04
2023-08-28T14:42:41.993Z,17.06
2023-08-28T14:44:54.904Z,17.06
2023-08-28T14:47:08.129Z,17.07
2023-08-28T14:49:20.926Z,17.08
2023-08-28T14:51:33.870Z,17.09
2023-08-28T14:53:46.935Z,17.10
2023-08-28T14:55:59.959Z,17.11
2023-08-28T14:58:13.093Z,17.11
2023-08-28T15:00:27.149Z,17.13
2023-08-28T15:02:41.448Z,17.13
2023-08-28T15:04:54.546Z,17.14
2023-08-28T15:07:07.961Z,17.15
2023-08-28T15:09:21.100Z,17.17
2023-08-28T15:11:34.015Z,17.18
2023-08-28T15:13:47.728Z,17.21
2023-08-28T15:16:01.797Z,17.23
2023-08-28T15:18:14.744Z,17.24
2023-08-28T15:20:27.758Z,17.26
2023-08-28T15:22:40.909Z,17.28
2023-08-28T15:24:53.916Z,17.29
2023-08-28T15:27:07.083Z,17.30
2023-08-28T15:29:21.058Z,17.30
2023-08-28T15:31:35.662Z,17.31
2023-08-28T15:33:48.559Z,17.33
2023-08-28T15:36:01.468Z,17.34
2023-08-28T15:38:14.252Z,17.34
2023-08-28T15:40:27.015Z,17.30
2023-08-28T15:42:39.747Z,17.25
2023-08-28T15:44:52.800Z,17.21
2023-08-28T15:47:06.859Z,17.19
2023-08-28T15:49:20.939Z,17.14
2023-08-28T15:51:33.769Z,17.08
2023-08-28T15:53:46.730Z,17.09
2023-08-28T15:56:02.827Z,17.11
2023-08-28T15:58:15.681Z,17.15
2023-08-28T16:00:29.013Z,17.21
2023-08-28T16:02:42.320Z,17.26
2023-08-28T16:04:55.112Z,17.25
2023-08-28T16:07:08.287Z,17.22
2023-08-28T16:09:21.258Z,17.23
2023-08-28T16:11:35.316Z,17.25
2023-08-28T16:13:48.151Z,17.26
2023-08-28T16:16:01.034Z,17.23
2023-08-28T16:18:14.187Z,17.20
2023-08-28T16:20:30.669Z,17.22
2023-08-28T16:22:43.656Z,17.24
2023-08-28T16:24:59.164Z,17.24
2023-08-28T16:27:12.619Z,17.26
2023-08-28T16:29:25.747Z,17.26
2023-08-28T16:31:41.761Z,17.29
2023-08-28T16:33:55.302Z,17.34
2023-08-28T16:36:08.535Z,17.35
2023-08-28T16:38:21.615Z,17.31
2023-08-28T16:40:34.610Z,17.26
2023-08-28T16:42:47.855Z,17.22
2023-08-28T16:45:00.613Z,17.19
2023-08-28T16:47:13.607Z,17.22
2023-08-28T16:49:26.604Z,17.20
2023-08-28T16:51:41.313Z,17.17
2023-08-28T16:53:54.282Z,17.14
2023-08-28T16:56:07.355Z,17.12
2023-08-28T16:58:20.165Z,17.09
2023-08-28T17:00:36.461Z,17.11
2023-08-28T17:02:50.034Z,17.13
2023-08-28T17:05:03.833Z,17.13
2023-08-28T17:07:17.508Z,17.15
2023-08-28T18:04:32.837Z,17.57
2023-08-28T18:06:47.832Z,17.58
2023-08-28T18:09:00.731Z,17.62
2023-08-28T18:11:13.462Z,17.63
2023-08-28T18:13:26.369Z,17.63
2023-08-28T18:15:41.838Z,17.61
2023-08-28T18:17:54.873Z,17.60
2023-08-28T18:20:08.540Z,17.61
2023-08-28T18:22:21.308Z,17.62
2023-08-28T18:24:35.428Z,17.62
2023-08-28T18:26:48.713Z,17.60
2023-08-28T18:29:01.829Z,17.58
2023-08-28T18:31:14.941Z,17.55
2023-08-28T18:33:27.970Z,17.55
2023-08-28T18:35:40.745Z,17.59
2023-08-28T18:37:56.904Z,17.60
2023-08-28T18:40:13.449Z,17.59
2023-08-28T18:42:26.353Z,17.62
2023-08-28T18:44:39.181Z,17.65
2023-08-28T18:46:51.955Z,17.67
2023-08-28T18:49:05.368Z,17.67
2023-08-28T18:51:19.801Z,17.69
2023-08-28T18:53:33.013Z,17.71
2023-08-28T18:55:46.611Z,17.73
2023-08-28T18:58:00.006Z,17.77
2023-08-28T19:00:15.765Z,17.81
2023-08-28T19:02:28.720Z,17.85
2023-08-28T19:04:42.562Z,17.91
2023-08-28T19:06:55.450Z,17.96
2023-08-28T19:09:09.377Z,18.01
2023-08-28T19:11:22.435Z,18.08
2023-08-28T19:13:36.066Z,18.16
2023-08-28T19:15:50.190Z,18.19
2023-08-28T19:18:03.844Z,18.22
2023-08-28T19:20:18.106Z,18.29
2023-08-28T19:22:31.012Z,18.32
2023-08-28T19:24:44.107Z,18.33
2023-08-28T19:26:57.217Z,18.38
2023-08-28T19:29:10.946Z,18.42
2023-08-28T19:31:24.794Z,18.44
2023-08-28T19:33:37.984Z,18.46
2023-08-28T19:35:52.065Z,18.51
2023-08-28T19:38:06.274Z,18.57
2023-08-28T19:40:21.387Z,18.67
2023-08-28T19:42:34.431Z,18.73
2023-08-28T19:44:47.618Z,18.79
2023-08-28T19:47:00.545Z,18.85
2023-08-28T19:49:13.541Z,18.90
2023-08-28T19:51:29.442Z,18.91
2023-08-28T19:53:42.278Z,18.91
2023-08-28T19:55:55.264Z,18.94
2023-08-28T19:58:08.975Z,18.98
2023-08-28T20:00:22.679Z,18.94
2023-08-28T20:02:35.555Z,18.91
2023-08-28T20:04:49.431Z,18.87
2023-08-28T20:07:02.472Z,18.82
2023-08-28T20:09:16.629Z,18.83
2023-08-28T20:11:29.919Z,18.83
2023-08-28T20:13:42.851Z,18.82
2023-08-28T20:15:58.829Z,18.84
2023-08-28T20:18:12.445Z,18.85
2023-08-28T20:20:25.589Z,18.88
2023-08-28T20:22:40.341Z,18.90
2023-08-28T20:24:55.121Z,18.91
2023-08-28T20:27:10.146Z,18.93
2023-08-28T20:29:23.076Z,18.94
2023-08-28T20:31:36.012Z,18.94
2023-08-28T20:33:49.271Z,18.96
2023-08-28T20:36:02.135Z,18.98
2023-08-28T20:38:15.143Z,18.98
2023-08-28T20:40:29.089Z,18.96
2023-08-28T20:42:42.285Z,18.89
2023-08-28T20:44:55.471Z,18.83
2023-08-28T20:47:08.504Z,18.78
2023-08-28T20:49:21.221Z,18.78
2023-08-28T20:51:35.110Z,18.83
2023-08-28T20:53:48.142Z,18.88
2023-08-28T20:56:01.824Z,18.94
2023-08-28T20:58:14.677Z,19.00
2023-08-28T21:00:27.801Z,19.09
2023-08-28T21:02:41.047Z,19.12
2023-08-28T21:04:54.327Z,19.13
2023-08-28T21:07:07.470Z,19.17
2023-08-28T21:09:20.545Z,19.14
2023-08-28T21:11:33.944Z,19.05
2023-08-28T21:13:47.258Z,19.03
2023-08-28T21:16:03.255Z,19.06
2023-08-28T21:18:16.729Z,19.15
2023-08-28T21:20:29.890Z,19.32
2023-08-28T21:22:42.699Z,19.43
2023-08-28T21:24:55.591Z,19.57
2023-08-28T21:27:08.873Z,19.75
2023-08-28T21:29:21.714Z,19.94
2023-08-28T21:31:34.666Z,20.06
2023-08-28T21:33:48.778Z,20.21
2023-08-28T21:36:02.294Z,20.37
2023-08-28T21:38:15.056Z,20.44
2023-08-28T21:40:28.696Z,20.49
2023-08-28T21:42:41.811Z,20.58
2023-08-28T21:44:55.599Z,20.65
2023-08-28T21:47:08.616Z,20.73
2023-08-28T21:49:40.624Z,20.80
2023-08-28T21:52:12.678Z,20.86
2023-08-28T21:54:44.182Z,20.90
2023-08-28T21:57:16.165Z,20.96
2023-08-28T21:59:48.688Z,20.96
2023-08-28T22:02:17.664Z,20.97
2023-08-28T22:04:51.683Z,21.01
2023-08-28T22:07:23.446Z,21.05
2023-08-28T22:09:57.911Z,21.10
2023-08-28T22:12:15.686Z,21.15
2023-08-28T22:14:28.830Z,21.17
2023-08-28T22:16:41.974Z,21.06
2023-08-28T22:18:54.741Z,20.97
2023-08-28T22:21:07.756Z,20.94
2023-08-28T22:23:20.471Z,20.86
2023-08-28T22:25:33.257Z,20.78
2023-08-28T22:27:46.128Z,20.73
2023-08-28T22:29:59.369Z,20.66
2023-08-28T22:32:12.644Z,20.65
2023-08-28T22:34:26.079Z,20.69
2023-08-28T22:36:38.819Z,20.62
2023-08-28T22:38:52.022Z,20.44
2023-08-28T22:41:05.843Z,20.30
2023-08-28T22:43:18.759Z,20.27
2023-08-28T22:45:31.579Z,20.14
2023-08-28T22:47:44.927Z,20.04
2023-08-28T22:49:58.108Z,19.97
2023-08-28T22:52:11.461Z,19.87
2023-08-28T22:54:24.427Z,19.81
2023-08-28T22:56:37.769Z,19.76
2023-08-28T22:58:51.018Z,19.81
2023-08-28T23:01:05.054Z,19.89
2023-08-28T23:03:18.070Z,19.92
2023-08-28T23:05:31.058Z,19.87
2023-08-28T23:07:43.812Z,19.75
2023-08-28T23:09:57.034Z,19.66
2023-08-28T23:12:10.477Z,19.64
2023-08-28T23:14:23.683Z,19.66
2023-08-28T23:16:36.463Z,19.71
2023-08-28T23:18:50.295Z,19.74
2023-08-28T23:21:04.956Z,19.73
2023-08-28T23:23:17.998Z,19.73
2023-08-28T23:25:32.976Z,19.70
2023-08-28T23:27:45.765Z,19.66
2023-08-28T23:29:59.158Z,19.59
2023-08-28T23:32:13.952Z,19.59
2023-08-28T23:34:26.659Z,19.60
2023-08-28T23:36:39.752Z,19.58
2023-08-28T23:38:52.739Z,19.59
2023-08-28T23:41:05.632Z,19.62
2023-08-28T23:43:18.562Z,19.68
2023-08-28T23:45:31.437Z,19.74
2023-08-28T23:47:45.325Z,19.81
2023-08-28T23:49:58.545Z,19.82
2023-08-28T23:52:12.077Z,19.85
2023-08-28T23:54:25.138Z,19.85
2023-08-28T23:56:38.067Z,19.89
2023-08-28T23:58:50.844Z,19.94
